Main page
METAR-TAF:

METAR-TAF

Airports :

Carlos Prates Airport

Belo Horizonte, Minas Gerais, Brazil

latitude: 19-54-33S, longitude: 043-59-21W, elevation: 928 m

Current weather observation

The report was made 5 hours and 10 minutes ago, at 21:00 UTC
Wind 14 kt from the East
Temperature 23°C
Humidity 89%
Pressure 1014 hPa
Visibility: 5000 m
Scattered clouds at a height of 3000 ft
Few clouds at a height of 3500 ft, Cumulonimbus.
Broken clouds at a height of 8000 ft
thunderstorm, light rain

METAR: SBPR 152100Z 10014KT 5000 -TSRA SCT030 FEW035CB BKN080 23/21 Q1014

Time: 00:10 (02:10 UTC)


TAF: missing

Weather observations and forecasts of more than 4000 airports (METAR and TAF reports).

The available stations are represented by yellow and red dots on the map.

Hover mouse over dot to see the name of the station.

Then click to see weather observations and forecasts.

To change the map : click on the green buttons with a black cross to zoom in, on the green button with a dash to zoom out, or on the green arrows for adjacent maps.


METAR-TAF: